createdAt,value
2019-04-05T00:00:40.555Z,91.75
2019-04-05T00:03:10.392Z,91.24
2019-04-05T00:05:40.900Z,91.91
2019-04-05T00:08:11.239Z,92.11
2019-04-05T00:10:41.112Z,92.26
2019-04-05T00:13:11.004Z,92.41
2019-04-05T00:15:40.848Z,92.39
2019-04-05T00:18:10.701Z,92.49
2019-04-05T00:20:40.517Z,92.27
2019-04-05T00:23:10.340Z,92.34
2019-04-05T00:25:40.241Z,92.35
2019-04-05T00:28:10.131Z,92.16
2019-04-05T00:30:39.985Z,92.17
2019-04-05T00:33:09.815Z,92.26
2019-04-05T00:35:39.749Z,92.48
2019-04-05T00:38:09.504Z,92.71
2019-04-05T00:40:39.435Z,92.92
2019-04-05T00:43:09.232Z,92.82
2019-04-05T00:45:39.068Z,92.95
2019-04-05T00:48:11.370Z,92.85
2019-04-05T00:50:43.227Z,93.02
2019-04-05T00:53:19.347Z,93.39
2019-04-05T00:55:49.611Z,93.19
2019-04-05T00:58:19.567Z,93.26
2019-04-05T01:00:49.433Z,93.34
2019-04-05T01:03:19.268Z,93.35
2019-04-05T01:05:49.179Z,93.47
2019-04-05T01:08:19.102Z,93.75
2019-04-05T01:10:49.032Z,93.67
2019-04-05T01:13:18.945Z,93.56
2019-04-05T01:15:48.853Z,93.91
2019-04-05T01:18:18.759Z,93.73
2019-04-05T01:20:50.094Z,93.87
2019-04-05T01:23:21.099Z,93.90
2019-04-05T01:25:54.200Z,93.75
2019-04-05T01:28:25.283Z,93.51
2019-04-05T01:30:55.126Z,93.48
2019-04-05T01:33:25.008Z,93.32
2019-04-05T01:35:54.975Z,94.22
2019-04-05T01:38:24.883Z,94.17
2019-04-05T01:40:57.559Z,94.19
2019-04-05T01:43:27.466Z,94.16
2019-04-05T01:45:58.469Z,93.45
2019-04-05T01:48:28.223Z,93.85
2019-04-05T01:51:25.217Z,93.67
2019-04-05T01:56:49.788Z,94.14
2019-04-05T01:59:19.535Z,94.01
2019-04-05T02:01:49.550Z,93.80
2019-04-05T02:04:19.443Z,93.75
2019-04-05T02:06:49.286Z,93.63
2019-04-05T02:09:19.210Z,93.47
2019-04-05T02:11:49.580Z,93.79
2019-04-05T02:14:19.839Z,94.27
2019-04-05T02:17:11.256Z,94.13
2019-04-05T02:19:41.069Z,94.08
2019-04-05T02:22:10.941Z,93.74
2019-04-05T02:24:40.773Z,94.05
2019-04-05T02:27:10.624Z,94.16
2019-04-05T02:29:40.560Z,93.92
2019-04-05T02:32:10.478Z,93.83
2019-04-05T02:34:40.320Z,93.87
2019-04-05T02:37:10.110Z,93.96
2019-04-05T02:39:39.936Z,94.05
2019-04-05T02:42:12.068Z,94.08
2019-04-05T02:44:44.522Z,94.21
2019-04-05T02:47:15.932Z,94.47
2019-04-05T02:49:47.516Z,94.46
2019-04-05T02:52:19.626Z,94.31
2019-04-05T02:54:50.558Z,94.23
2019-04-05T02:57:21.785Z,94.28
2019-04-05T02:59:52.727Z,94.45
2019-04-05T03:02:22.546Z,94.51
2019-04-05T03:04:52.418Z,94.30
2019-04-05T03:07:22.537Z,94.41
2019-04-05T03:09:52.607Z,94.57
2019-04-05T03:12:22.538Z,94.62
2019-04-05T03:14:52.448Z,94.50
2019-04-05T03:17:24.049Z,94.08
2019-04-05T03:19:56.989Z,92.96
2019-04-05T03:22:29.629Z,92.85
2019-04-05T03:25:00.288Z,93.55
2019-04-05T03:27:33.109Z,93.60
2019-04-05T03:30:03.505Z,93.95
2019-04-05T03:32:33.417Z,94.22
2019-04-05T03:35:03.313Z,94.05
2019-04-05T03:37:33.496Z,93.59
2019-04-05T03:40:04.889Z,93.53
2019-04-05T03:42:35.560Z,93.82
2019-04-05T03:45:07.250Z,93.79
2019-04-05T03:47:37.339Z,93.64
2019-04-05T03:50:07.536Z,93.86
2019-04-05T03:52:45.403Z,94.02
2019-04-05T03:55:18.643Z,94.10
2019-04-05T03:57:48.660Z,94.00
2019-04-05T04:00:18.562Z,93.62
2019-04-05T04:02:49.852Z,94.29
2019-04-05T04:05:19.829Z,94.16
2019-04-05T04:07:49.706Z,94.33
2019-04-05T04:10:19.720Z,94.58
2019-04-05T04:12:50.515Z,94.57
2019-04-05T04:15:20.411Z,94.61
2019-04-05T04:17:50.927Z,94.68
2019-04-05T04:20:38.111Z,94.95
2019-04-05T04:23:09.925Z,95.29
2019-04-05T04:25:40.610Z,95.24
2019-04-05T04:28:11.114Z,95.09
2019-04-05T04:30:41.813Z,94.92
2019-04-05T04:33:11.899Z,94.85
2019-04-05T04:35:41.848Z,94.50
2019-04-05T04:38:11.730Z,94.65
2019-04-05T04:40:41.906Z,94.55
2019-04-05T04:43:12.017Z,93.85
2019-04-05T04:45:43.373Z,93.98
2019-04-05T04:48:13.664Z,94.11
2019-04-05T04:50:43.662Z,94.02
2019-04-05T04:53:16.459Z,93.37
2019-04-05T04:55:46.216Z,93.40
2019-04-05T04:58:16.205Z,93.43
2019-04-05T05:00:46.134Z,93.20
2019-04-05T05:03:16.031Z,93.35
2019-04-05T05:05:46.184Z,93.28
2019-04-05T05:08:16.288Z,93.49
2019-04-05T05:10:46.779Z,93.31
2019-04-05T05:13:16.628Z,94.06
2019-04-05T05:15:46.880Z,94.10
2019-04-05T05:18:17.127Z,94.29
2019-04-05T05:20:47.052Z,93.88
2019-04-05T05:23:17.047Z,93.24
2019-04-05T05:25:47.165Z,93.52
2019-04-05T05:28:17.417Z,93.84
2019-04-05T05:30:47.552Z,94.15
2019-04-05T05:33:17.844Z,94.39
2019-04-05T05:35:47.903Z,94.19
2019-04-05T05:38:17.840Z,93.96
2019-04-05T05:40:47.625Z,93.76
2019-04-05T05:43:17.520Z,93.78
2019-04-05T05:45:47.438Z,93.68
2019-04-05T05:48:17.681Z,93.69
2019-04-05T05:50:48.495Z,93.67
2019-04-05T05:53:24.532Z,93.54
2019-04-05T05:55:54.352Z,93.58
2019-04-05T05:58:25.747Z,93.58
2019-04-05T06:00:55.485Z,93.23
2019-04-05T06:03:25.204Z,93.16
2019-04-05T06:06:04.307Z,93.13
2019-04-05T06:08:29.041Z,92.76
2019-04-05T06:10:58.403Z,92.68
2019-04-05T06:13:28.247Z,92.58
2019-04-05T06:15:58.092Z,92.66
2019-04-05T06:18:27.836Z,92.29
2019-04-05T06:20:57.627Z,92.05
2019-04-05T06:23:33.486Z,91.48
2019-04-05T06:25:58.959Z,90.27
2019-04-05T06:28:28.806Z,89.20
2019-04-05T06:30:58.594Z,88.35
2019-04-05T06:33:31.740Z,87.57
2019-04-05T06:35:59.920Z,86.90
2019-04-05T06:38:29.706Z,86.91
2019-04-05T06:40:59.456Z,85.90
2019-04-05T06:43:29.212Z,84.90
2019-04-05T06:45:59.115Z,84.17
2019-04-05T06:48:29.661Z,83.65
2019-04-05T06:50:59.688Z,83.50
2019-04-05T06:53:29.520Z,84.18
2019-04-05T06:55:59.939Z,84.75
2019-04-05T06:58:30.284Z,83.73
2019-04-05T07:01:00.120Z,84.33
2019-04-05T07:03:29.961Z,85.10
2019-04-05T07:05:59.696Z,85.50
2019-04-05T07:08:29.462Z,84.52
2019-04-05T07:10:59.292Z,83.77
2019-04-05T07:13:29.117Z,84.19
2019-04-05T07:15:58.906Z,83.58
2019-04-05T07:18:35.451Z,83.24
2019-04-05T07:21:00.160Z,83.11
2019-04-05T07:23:29.933Z,82.57
2019-04-05T07:25:59.784Z,82.45
2019-04-05T07:28:29.494Z,82.55
2019-04-05T07:30:59.343Z,81.52
2019-04-05T07:33:29.168Z,80.78
2019-04-05T07:35:59.248Z,80.44
2019-04-05T07:38:30.580Z,80.25
2019-04-05T07:41:00.323Z,80.70
2019-04-05T07:43:30.062Z,78.76
2019-04-05T07:45:59.979Z,80.87
2019-04-05T07:48:29.827Z,80.12
2019-04-05T07:50:59.647Z,80.77
2019-04-05T07:53:29.381Z,80.97
2019-04-05T07:55:59.112Z,82.48
2019-04-05T07:58:29.029Z,83.77
2019-04-05T08:00:59.018Z,82.48
2019-04-05T08:03:28.897Z,79.88
2019-04-05T08:05:58.853Z,77.27
2019-04-05T08:08:40.387Z,77.45
2019-04-05T08:11:10.324Z,76.11
2019-04-05T08:13:41.872Z,76.55
2019-04-05T08:16:11.773Z,74.95
2019-04-05T08:18:41.571Z,77.54
2019-04-05T08:21:11.529Z,75.69
2019-04-05T08:23:41.276Z,75.61
2019-04-05T08:26:16.766Z,75.58
2019-04-05T08:28:46.645Z,76.13
2019-04-05T08:31:16.413Z,75.91
2019-04-05T08:33:46.136Z,78.09
2019-04-05T08:36:15.995Z,77.50
2019-04-05T08:38:45.815Z,75.44
2019-04-05T08:41:15.648Z,75.80
2019-04-05T08:43:47.216Z,75.49
2019-04-05T08:46:17.048Z,75.67
2019-04-05T08:48:46.865Z,75.47
2019-04-05T08:51:16.716Z,74.43
2019-04-05T08:53:46.438Z,74.36
2019-04-05T08:56:16.150Z,74.20
2019-04-05T08:58:45.994Z,74.39
2019-04-05T09:01:15.782Z,73.63
2019-04-05T09:03:45.518Z,73.69
2019-04-05T09:06:15.393Z,74.54
2019-04-05T09:08:45.218Z,74.92
2019-04-05T09:11:15.035Z,73.27
2019-04-05T09:13:44.846Z,72.98
2019-04-05T09:16:14.617Z,73.61
2019-04-05T09:18:44.450Z,72.73
2019-04-05T09:21:14.244Z,73.42
2019-04-05T09:23:44.083Z,70.49
2019-04-05T09:26:13.864Z,72.08
2019-04-05T09:28:43.634Z,67.62
2019-04-05T09:31:13.365Z,67.91
2019-04-05T09:33:43.099Z,68.55
2019-04-05T09:36:12.915Z,67.33
2019-04-05T09:38:42.838Z,67.97
2019-04-05T09:41:12.592Z,68.87
2019-04-05T09:43:42.346Z,69.28
2019-04-05T09:46:12.227Z,70.28
2019-04-05T09:48:42.033Z,68.05
2019-04-05T09:51:11.848Z,67.10
2019-04-05T09:53:51.724Z,66.77
2019-04-05T09:56:21.558Z,64.63
2019-04-05T09:58:51.390Z,66.10
2019-04-05T10:01:21.120Z,65.58
2019-04-05T10:03:50.942Z,68.92
2019-04-05T10:06:20.773Z,69.48
2019-04-05T10:08:50.507Z,71.19
2019-04-05T10:11:20.334Z,70.71
2019-04-05T10:13:50.154Z,70.44
2019-04-05T10:16:19.970Z,70.24
2019-04-05T10:18:51.496Z,71.62
2019-04-05T10:21:21.234Z,71.66
2019-04-05T10:23:51.074Z,70.72
2019-04-05T10:26:20.961Z,71.04
2019-04-05T10:28:50.733Z,71.12
2019-04-05T10:31:20.482Z,72.70
2019-04-05T10:33:50.322Z,71.95
2019-04-05T10:36:20.289Z,69.21
2019-04-05T10:38:50.089Z,68.84
2019-04-05T10:41:22.894Z,69.74
2019-04-05T10:43:51.463Z,65.08
2019-04-05T10:46:21.210Z,64.48
2019-04-05T10:48:51.047Z,64.41
2019-04-05T10:51:22.281Z,63.43
2019-04-05T10:53:52.030Z,62.82
2019-04-05T10:56:21.933Z,62.17
2019-04-05T10:58:51.723Z,62.20
2019-04-05T11:01:21.569Z,64.37
2019-04-05T11:03:51.314Z,64.62
2019-04-05T11:06:21.101Z,64.54
2019-04-05T11:08:50.981Z,63.91
2019-04-05T11:11:20.716Z,63.44
2019-04-05T11:13:50.565Z,64.65
2019-04-05T11:16:20.321Z,64.86
2019-04-05T11:18:50.100Z,65.17
2019-04-05T11:21:19.855Z,63.96
2019-04-05T11:23:49.612Z,63.91
2019-04-05T11:26:19.433Z,64.50
2019-04-05T11:28:49.186Z,65.85
2019-04-05T11:31:19.016Z,66.35
2019-04-05T11:33:49.047Z,66.20
2019-04-05T11:36:19.686Z,64.57
2019-04-05T11:38:50.787Z,65.34
2019-04-05T11:41:22.342Z,64.09
2019-04-05T11:43:54.205Z,66.01
2019-04-05T11:46:24.102Z,66.51
2019-04-05T11:48:54.072Z,66.89
2019-04-05T11:51:23.946Z,66.80
2019-04-05T11:53:53.692Z,65.21
2019-04-05T11:56:23.426Z,66.97
2019-04-05T11:58:53.176Z,65.62
2019-04-05T12:01:24.564Z,65.70
2019-04-05T12:03:54.363Z,65.65
2019-04-05T12:06:24.147Z,66.39
2019-04-05T12:08:54.006Z,66.00
2019-04-05T12:11:23.824Z,66.43
2019-04-05T12:13:53.648Z,65.16
2019-04-05T12:16:23.468Z,64.67
2019-04-05T12:18:53.208Z,65.52
2019-04-05T12:21:23.017Z,65.53
2019-04-05T12:23:52.983Z,65.58
2019-04-05T12:26:22.774Z,65.11
2019-04-05T12:28:52.616Z,64.75
2019-04-05T12:31:23.060Z,65.36
2019-04-05T12:33:52.893Z,65.50
2019-04-05T12:36:22.774Z,64.87
2019-04-05T12:38:54.180Z,64.56
2019-04-05T12:41:24.197Z,64.81
2019-04-05T12:43:54.033Z,65.76
2019-04-05T12:46:23.930Z,64.90
2019-04-05T12:48:53.697Z,64.19
2019-04-05T12:51:23.507Z,64.05
2019-04-05T12:53:56.474Z,64.57
2019-04-05T12:56:26.613Z,63.39
2019-04-05T12:58:56.718Z,62.29
2019-04-05T13:01:26.708Z,62.90
2019-04-05T13:03:58.694Z,62.92
2019-04-05T13:06:28.135Z,62.24
2019-04-05T13:08:58.042Z,62.82
2019-04-05T13:11:27.800Z,61.72
2019-04-05T13:13:57.616Z,60.77
2019-04-05T13:16:27.322Z,61.48
2019-04-05T13:19:00.564Z,61.27
2019-04-05T13:21:32.014Z,62.06
2019-04-05T13:24:00.220Z,61.32
2019-04-05T13:26:30.019Z,61.21
2019-04-05T13:28:59.762Z,60.66
2019-04-05T13:31:29.634Z,62.00
2019-04-05T13:33:59.401Z,61.57
2019-04-05T13:36:29.123Z,61.61
2019-04-05T13:39:00.442Z,61.55
2019-04-05T13:41:32.278Z,61.70
2019-04-05T13:44:02.285Z,61.80
2019-04-05T13:46:32.031Z,62.00
2019-04-05T13:49:01.794Z,61.91
2019-04-05T13:51:32.079Z,62.50
2019-04-05T13:54:01.973Z,61.25
2019-04-05T13:56:31.741Z,60.35
2019-04-05T13:59:01.483Z,60.84
2019-04-05T14:01:31.356Z,59.13
2019-04-05T14:04:01.214Z,58.35
2019-04-05T14:06:31.057Z,58.84
2019-04-05T14:09:00.886Z,58.05
2019-04-05T14:11:30.704Z,57.87
2019-04-05T14:14:00.521Z,58.02
2019-04-05T14:16:30.300Z,57.39
2019-04-05T14:19:00.118Z,58.24
2019-04-05T14:21:39.822Z,58.07
2019-04-05T14:24:04.084Z,57.96
2019-04-05T14:26:33.002Z,59.75
2019-04-05T14:29:03.714Z,59.50
2019-04-05T14:31:34.014Z,60.53
2019-04-05T14:34:03.922Z,60.48
2019-04-05T14:36:33.683Z,60.36
2019-04-05T14:39:03.578Z,59.46
2019-04-05T14:41:33.320Z,59.20
2019-04-05T14:44:03.074Z,59.82
2019-04-05T14:46:32.929Z,58.85
2019-04-05T14:49:02.839Z,57.82
2019-04-05T14:51:32.674Z,59.11
2019-04-05T14:54:02.604Z,59.47
2019-04-05T14:56:32.386Z,59.75
2019-04-05T14:59:02.190Z,60.76
2019-04-05T15:01:31.929Z,60.20
2019-04-05T15:04:01.752Z,59.85
2019-04-05T15:06:31.604Z,60.13
2019-04-05T15:09:02.143Z,60.01
2019-04-05T15:11:32.026Z,59.26
2019-04-05T15:14:01.764Z,59.13
2019-04-05T15:16:31.587Z,60.46
2019-04-05T15:19:01.345Z,60.07
2019-04-05T15:21:31.106Z,61.38
2019-04-05T15:24:01.064Z,61.70
2019-04-05T15:26:30.871Z,62.37
2019-04-05T15:29:00.627Z,63.22
2019-04-05T15:31:30.405Z,62.68
2019-04-05T15:34:00.184Z,63.48
2019-04-05T15:36:34.854Z,64.24
2019-04-05T15:39:07.874Z,64.35
2019-04-05T15:41:37.914Z,64.90
2019-04-05T15:44:07.677Z,64.79
2019-04-05T15:46:37.572Z,65.20
2019-04-05T15:49:07.467Z,64.70
2019-04-05T15:51:37.261Z,64.58
2019-04-05T15:54:07.092Z,65.52
2019-04-05T15:56:36.949Z,66.16
2019-04-05T15:59:06.799Z,66.52
2019-04-05T16:01:36.685Z,66.89
2019-04-05T16:04:06.576Z,66.80
2019-04-05T16:06:38.939Z,67.26
2019-04-05T16:09:09.861Z,68.49
2019-04-05T16:11:39.800Z,68.31
2019-04-05T16:14:09.796Z,68.74
2019-04-05T16:16:39.665Z,67.30
2019-04-05T16:19:09.593Z,67.28
2019-04-05T16:21:39.311Z,67.84
2019-04-05T16:24:09.183Z,68.28
2019-04-05T16:26:38.994Z,67.74
2019-04-05T16:29:08.753Z,68.90
2019-04-05T16:31:38.654Z,68.67
2019-04-05T16:34:08.389Z,68.66
2019-04-05T16:36:38.306Z,68.94
2019-04-05T16:39:10.116Z,68.43
2019-04-05T16:41:39.831Z,69.10
2019-04-05T16:44:09.573Z,69.55
2019-04-05T16:46:39.277Z,69.38
2019-04-05T16:49:09.121Z,70.07
2019-04-05T16:51:39.004Z,70.00
2019-04-05T16:54:08.839Z,70.06
2019-04-05T16:56:38.564Z,70.43
2019-04-05T16:59:08.306Z,71.55
2019-04-05T17:01:38.209Z,71.14
2019-04-05T17:04:08.050Z,71.12
2019-04-05T17:06:37.837Z,72.15
2019-04-05T17:09:09.193Z,72.21
2019-04-05T17:11:39.017Z,71.66
2019-04-05T17:14:08.747Z,71.92
2019-04-05T17:16:38.579Z,72.36
2019-04-05T17:19:08.374Z,72.41
2019-04-05T17:21:38.107Z,72.72
2019-04-05T17:24:08.008Z,72.97
2019-04-05T17:26:37.766Z,73.03
2019-04-05T17:29:07.508Z,73.32
2019-04-05T17:31:37.365Z,73.97
2019-04-05T17:34:07.390Z,74.17
2019-04-05T17:36:37.391Z,74.66
2019-04-05T17:39:08.474Z,75.23
2019-04-05T17:41:38.331Z,75.52
2019-04-05T17:44:08.129Z,76.10
2019-04-05T17:46:37.970Z,76.26
2019-04-05T17:49:07.770Z,76.69
2019-04-05T17:51:37.684Z,76.92
2019-04-05T17:54:07.672Z,77.65
2019-04-05T17:56:37.843Z,77.27
2019-04-05T17:59:07.737Z,77.33
2019-04-05T18:01:38.893Z,76.53
2019-04-05T18:04:08.809Z,76.95
2019-04-05T18:06:38.589Z,77.52
2019-04-05T18:09:08.485Z,77.75
2019-04-05T18:11:38.327Z,77.40
2019-04-05T18:14:08.129Z,77.71
2019-04-05T18:16:37.891Z,77.55
2019-04-05T18:19:07.751Z,77.53
2019-04-05T18:21:40.091Z,77.64
2019-04-05T18:24:10.026Z,77.38
2019-04-05T18:26:39.809Z,77.50
2019-04-05T18:29:09.585Z,76.86
2019-04-05T18:31:39.407Z,78.24
2019-04-05T18:34:09.189Z,77.72
2019-04-05T18:36:39.025Z,77.81
2019-04-05T18:39:09.144Z,77.40
2019-04-05T18:41:38.953Z,77.34
2019-04-05T18:44:08.772Z,77.72
2019-04-05T18:46:38.540Z,77.60
2019-04-05T18:49:08.585Z,77.22
2019-04-05T18:51:38.585Z,78.34
2019-04-05T18:54:08.434Z,78.38
2019-04-05T18:56:38.325Z,78.56
2019-04-05T18:59:08.296Z,79.00
2019-04-05T19:01:38.091Z,79.02
2019-04-05T19:04:09.404Z,78.87
2019-04-05T19:06:39.427Z,79.04
2019-04-05T19:09:12.160Z,79.51
2019-04-05T19:11:42.317Z,79.79
2019-04-05T19:14:12.366Z,80.24
2019-04-05T19:16:42.115Z,80.15
2019-04-05T19:19:12.130Z,80.31
2019-04-05T19:21:41.895Z,80.12
2019-04-05T19:24:11.834Z,79.84
2019-04-05T19:26:41.885Z,79.99
2019-04-05T19:29:11.939Z,80.36
2019-04-05T19:49:25.655Z,81.12
2019-04-05T19:51:55.534Z,81.42
2019-04-05T19:54:28.859Z,81.26
2019-04-05T19:56:58.635Z,80.98
2019-04-05T19:59:28.458Z,81.49
2019-04-05T20:01:58.165Z,81.52
2019-04-05T20:04:28.193Z,81.42
2019-04-05T20:06:58.886Z,81.03
2019-04-05T20:09:28.835Z,81.43
2019-04-05T20:11:58.622Z,81.55
2019-04-05T20:14:28.320Z,82.25
2019-04-05T20:16:58.278Z,82.74
2019-04-05T20:19:28.129Z,83.12
2019-04-05T20:21:57.999Z,83.47
2019-04-05T20:24:27.764Z,83.53
2019-04-05T20:26:57.515Z,83.67
2019-04-05T20:29:27.279Z,83.85
2019-04-05T20:31:57.123Z,84.01
2019-04-05T20:34:26.972Z,84.22
2019-04-05T20:36:56.917Z,84.38
2019-04-05T20:39:26.765Z,84.34
2019-04-05T20:42:02.905Z,84.41
2019-04-05T20:44:32.782Z,84.60
2019-04-05T20:47:02.973Z,84.73
2019-04-05T20:49:33.004Z,84.91
2019-04-05T20:52:03.113Z,85.22
2019-04-05T20:54:33.039Z,85.29
2019-04-05T20:57:02.803Z,85.55
2019-04-05T20:59:32.615Z,85.62
2019-04-05T21:02:02.443Z,85.76
2019-04-05T21:04:32.530Z,86.08
2019-04-05T21:07:02.293Z,86.27
2019-04-05T21:09:32.131Z,86.16
2019-04-05T21:12:02.144Z,86.09
2019-04-05T21:14:31.991Z,86.01
2019-04-05T21:17:01.816Z,85.93
2019-04-05T21:19:31.770Z,85.82
2019-04-05T21:22:06.817Z,85.66
2019-04-05T21:24:39.151Z,85.44
2019-04-05T21:27:09.082Z,85.63
2019-04-05T21:29:38.828Z,85.45
2019-04-05T21:32:08.683Z,85.83
2019-04-05T21:34:38.455Z,86.08
2019-04-05T21:37:08.367Z,86.46
2019-04-05T21:39:38.235Z,86.49
2019-04-05T21:42:08.563Z,86.46
2019-04-05T21:44:39.283Z,86.43
2019-04-05T21:47:09.128Z,86.61
2019-04-05T21:49:38.920Z,86.43
2019-04-05T21:52:08.801Z,86.52
2019-04-05T21:54:47.123Z,86.40
2019-04-05T21:57:10.177Z,86.37
2019-04-05T21:59:39.977Z,86.04
2019-04-05T22:02:09.906Z,86.00
2019-04-05T22:04:39.706Z,85.86
2019-04-05T22:07:09.665Z,85.72
2019-04-05T22:09:39.446Z,85.77
2019-04-05T22:12:14.562Z,85.82
2019-04-05T22:14:44.036Z,86.00
2019-04-05T22:17:13.839Z,86.44
2019-04-05T22:19:43.627Z,86.59
2019-04-05T22:22:13.886Z,86.87
2019-04-05T22:24:44.125Z,86.90
2019-04-05T22:27:13.961Z,87.10
2019-04-05T22:29:43.774Z,87.18
2019-04-05T22:32:13.607Z,87.16
2019-04-05T22:34:43.463Z,87.06
2019-04-05T22:37:13.464Z,86.75
2019-04-05T22:39:43.256Z,86.67
2019-04-05T22:42:13.070Z,86.08
2019-04-05T22:44:42.950Z,85.99
2019-04-05T22:47:12.867Z,85.72
2019-04-05T22:49:42.673Z,85.76
2019-04-05T22:52:12.486Z,85.60
2019-04-05T22:54:42.315Z,85.48
2019-04-05T22:57:12.215Z,84.98
2019-04-05T22:59:42.061Z,85.11
2019-04-05T23:02:11.861Z,85.31
2019-04-05T23:04:41.723Z,84.83
2019-04-05T23:07:11.661Z,84.67
2019-04-05T23:09:41.545Z,84.90
2019-04-05T23:12:11.356Z,85.16
2019-04-05T23:14:41.157Z,85.45
2019-04-05T23:17:10.985Z,85.61
2019-04-05T23:19:40.790Z,85.32
2019-04-05T23:22:10.638Z,84.76
2019-04-05T23:24:42.046Z,84.62
2019-04-05T23:27:12.102Z,83.88
2019-04-05T23:29:42.245Z,84.22
2019-04-05T23:32:12.446Z,84.25
2019-04-05T23:34:42.668Z,83.75
2019-04-05T23:37:12.512Z,84.62
2019-04-05T23:39:42.394Z,84.64
2019-04-05T23:42:12.242Z,84.99
2019-04-05T23:44:42.105Z,85.27
2019-04-05T23:47:11.964Z,85.32
2019-04-05T23:49:41.764Z,85.48
2019-04-05T23:52:14.441Z,86.07
2019-04-05T23:54:44.210Z,86.14
2019-04-05T23:57:16.640Z,86.23
2019-04-05T23:59:46.363Z,86.54
